Time;durP1;ratioP1;P1;durP2;ratioP2;P2;SDS_P1;SDS_P2;PMS_P1;PMS_P2;Temp;Humidity;BMP_temperature;BMP_pressure;BME280_temperature;BME280_humidity;BME280_pressure;Samples;Min_cycle;Max_cycle;Signal;HPM_P1;HPM_P2
2022/02/03 00:04:42;;;;;;;;;;;;;;;;;;5051139;28;20081;-69
2022/02/03 00:07:12;;;;;;;;;;;;;;;;;;5051637;28;19912;-70
2022/02/03 00:23:58;;;;;;;;;;;;;;;;;;4979592;28;20441;-70
2022/02/03 00:26:06;;;;;;;;;;;;;;;;;;4974264;28;20559;-70
2022/02/03 00:28:34;;;;;;;;;;;;;;;;;;4970666;28;19926;-69
2022/02/03 00:31:07;;;;;;;;;;;;;;;;;;4970033;28;20429;-69
2022/02/03 00:36:20;;;;;;;;;;;;;;;;;;4971698;28;19914;-69
2022/02/03 00:48:18;;;;;;;;;;;;;;;;;;4970047;28;20024;-69
2022/02/03 00:49:56;;;;;;;;;;;;;;;;;;5017267;28;20320;-70
2022/02/03 00:52:21;;;;;;;;;;;;;;;;;;5052776;28;19917;-70
2022/02/03 00:54:46;;;;;;;;;;;;;;;;;;5052973;28;20087;-70
2022/02/03 00:57:11;;;;;;;;;;;;;;;;;;5051859;28;19913;-70
2022/02/03 00:59:37;;;;;;;;;;;;;;;;;;5052082;28;19921;-70
2022/02/03 01:02:02;;;;;;;;;;;;;;;;;;5055882;28;20003;-70
2022/02/03 01:04:27;;;;;;;;;;;;;;;;;;5056831;28;19928;-70
2022/02/03 01:06:55;;;;;;;;;;;;;;;;;;5055548;28;19919;-70
2022/02/03 01:09:20;;;;;;;;;;;;;;;;;;5052206;28;19916;-70
2022/02/03 01:11:46;;;;;;;;;;;;;;;;;;5052257;28;19920;-70
2022/02/03 01:14:19;;;;;;;;;;;;;;;;;;5051605;28;19913;-70
2022/02/03 01:17:23;;;;;;;;;;;;;;;;;;5051194;28;20150;-70
2022/02/03 01:20:34;;;;;;;;;;;;;;;;;;5052253;28;20041;-70
2022/02/03 01:34:12;;;;;;;;;;;;;;;;;;5051842;28;19931;-69
2022/02/03 01:44:53;;;;;;;;;;;;;;;;;;5053479;28;19920;-69
2022/02/03 01:47:50;;;;;;;;;;;;;;;;;;5050690;28;19920;-69
2022/02/03 01:52:40;;;;;;;;;;;;;;;;;;5052919;28;19963;-69
2022/02/03 01:55:05;;;;;;;;;;;;;;;;;;5053129;28;19952;-69
2022/02/03 01:57:30;;;;;;;;;;;;;;;;;;5052723;28;19974;-69
2022/02/03 01:59:55;;;;;;;;;;;;;;;;;;5052416;28;19923;-69
2022/02/03 02:02:20;;;;;;;;;;;;;;;;;;5051519;28;19919;-69
2022/02/03 02:04:45;;;;;;;;;;;;;;;;;;5050051;28;19933;-69
2022/02/03 02:07:11;;;;;;;;;;;;;;;;;;5053723;28;19913;-69
2022/02/03 02:09:43;;;;;;;;;;;;;;;;;;5049267;28;20567;-69
2022/02/03 02:12:20;;;;;;;;;;;;;;;;;;5056067;28;20190;-69
2022/02/03 02:20:07;;;;;;;;;;;;;;;;;;5059308;28;20185;-69
2022/02/03 02:39:21;;;;;;;;;;;;;;;;;;5056039;28;19927;-69
2022/02/03 02:44:09;;;;;;;;;;;;;;;;;;5056249;28;19967;-69
2022/02/03 02:46:35;;;;;;;;;;;;;;;;;;5056262;28;19916;-70
2022/02/03 02:49:00;;;;;;;;;;;;;;;;;;5056930;28;20003;-70
2022/02/03 02:51:29;;;;;;;;;;;;;;;;;;5054081;28;19951;-70
2022/02/03 02:54:19;;;;;;;;;;;;;;;;;;5055721;28;20144;-70
2022/02/03 02:56:58;;;;;;;;;;;;;;;;;;5053869;28;19999;-69
2022/02/03 03:00:17;;;;;;;;;;;;;;;;;;5056691;28;20106;-70
2022/02/03 03:02:47;;;;;;;;;;;;;;;;;;5052637;28;20128;-70
2022/02/03 03:29:57;;;;;;;;;;;;;;;;;;5059514;28;20220;-69
2022/02/03 03:32:47;;;;;;;;;;;;;;;;;;5057037;28;19917;-69
2022/02/03 03:37:46;;;;;;;;;;;;;;;;;;5058915;28;19967;-69
2022/02/03 03:40:11;;;;;;;;;;;;;;;;;;5056448;28;19912;-69
2022/02/03 03:42:37;;;;;;;;;;;;;;;;;;5059795;28;19924;-69
2022/02/03 03:45:02;;;;;;;;;;;;;;;;;;5054392;28;20199;-70
2022/02/03 03:47:30;;;;;;;;;;;;;;;;;;5060044;28;19951;-70
2022/02/03 03:49:58;;;;;;;;;;;;;;;;;;5055030;28;19912;-70
2022/02/03 03:52:26;;;;;;;;;;;;;;;;;;5063987;28;19917;-69
2022/02/03 03:55:03;;;;;;;;;;;;;;;;;;5060469;28;20093;-69
2022/02/03 04:33:19;;;;;;;;;;;;;;;;;;5060023;28;20197;-69
2022/02/03 04:46:18;;;;;;;;;;;;;;;;;;4973763;28;19929;-69
2022/02/03 05:06:51;;;;;;;;;;;;;;;;;;4977199;28;19933;-67
2022/02/03 05:14:58;;;;;;;;;;;;;;;;;;4974556;28;19922;-67
2022/02/03 05:52:18;;;;;;;;;;;;;;;;;;4963416;28;20296;-69
2022/02/03 06:14:53;;;;;;;;;;;;;;;;;;4921041;29;20017;-69
2022/02/03 06:22:49;;;;;;;;;;;;;;;;;;4914720;29;20370;-67
2022/02/03 06:27:44;;;;;;;;;;;;;;;;;;4922374;29;20498;-67
2022/02/03 06:30:09;;;;;;;;;;;;;;;;;;4921568;29;19994;-67
2022/02/03 06:32:35;;;;;;;;;;;;;;;;;;4920985;29;20165;-67
2022/02/03 06:35:00;;;;;;;;;;;;;;;;;;4923012;29;19929;-67
2022/02/03 06:37:27;;;;;;;;;;;;;;;;;;4913812;29;20148;-68
2022/02/03 06:39:52;;;;;;;;;;;;;;;;;;4921769;29;20014;-67
2022/02/03 06:42:17;;;;;;;;;;;;;;;;;;4918119;29;20235;-67
2022/02/03 06:44:47;;;;;;;;;;;;;;;;;;4903840;29;19921;-67
2022/02/03 06:47:19;;;;;;;;;;;;;;;;;;4935221;29;19914;-67
2022/02/03 06:52:19;;;;;;;;;;;;;;;;;;5055791;28;20163;-67
2022/02/03 06:57:19;;;;;;;;;;;;;;;;;;5054653;28;20297;-67
2022/02/03 06:59:53;;;;;;;;;;;;;;;;;;5055159;28;19921;-67
2022/02/03 07:02:20;;;;;;;;;;;;;;;;;;5057405;28;20597;-67
2022/02/03 07:04:45;;;;;;;;;;;;;;;;;;5055261;28;19955;-67
2022/02/03 07:07:15;;;;;;;;;;;;;;;;;;5062464;28;19909;-67
2022/02/03 07:09:40;;;;;;;;;;;;;;;;;;5059406;28;19931;-67
2022/02/03 07:12:06;;;;;;;;;;;;;;;;;;5060770;28;19920;-67
2022/02/03 07:14:32;;;;;;;;;;;;;;;;;;5060226;28;19919;-67
2022/02/03 07:16:59;;;;;;;;;;;;;;;;;;5060721;28;20316;-67
2022/02/03 07:19:24;;;;;;;;;;;;;;;;;;5059469;28;20151;-67
2022/02/03 07:21:50;;;;;;;;;;;;;;;;;;5058375;28;19961;-67
2022/02/03 07:24:15;;;;;;;;;;;;;;;;;;5053660;28;20369;-67
2022/02/03 07:26:40;;;;;;;;;;;;;;;;;;5056092;28;20042;-67
2022/02/03 07:29:05;;;;;;;;;;;;;;;;;;5060440;28;19924;-67
2022/02/03 07:31:30;;;;;;;;;;;;;;;;;;5060139;28;19913;-67
2022/02/03 07:33:58;;;;;;;;;;;;;;;;;;5060266;28;19931;-67
2022/02/03 07:36:24;;;;;;;;;;;;;;;;;;5059473;28;19916;-67
2022/02/03 07:38:49;;;;;;;;;;;;;;;;;;5057160;28;19913;-67
2022/02/03 07:41:14;;;;;;;;;;;;;;;;;;5056492;28;19916;-67
2022/02/03 07:43:39;;;;;;;;;;;;;;;;;;5054458;28;19920;-67
2022/02/03 07:46:04;;;;;;;;;;;;;;;;;;5060976;28;20003;-67
2022/02/03 07:48:29;;;;;;;;;;;;;;;;;;5055684;28;20415;-67
2022/02/03 07:50:55;;;;;;;;;;;;;;;;;;5060119;28;19912;-67
2022/02/03 07:53:21;;;;;;;;;;;;;;;;;;5062207;28;19912;-67
2022/02/03 07:55:47;;;;;;;;;;;;;;;;;;5061097;28;19942;-67
2022/02/03 07:58:12;;;;;;;;;;;;;;;;;;5061119;28;19908;-68
2022/02/03 08:00:37;;;;;;;;;;;;;;;;;;5060987;28;20288;-67
2022/02/03 08:03:10;;;;;;;;;;;;;;;;;;5060171;28;20016;-67
2022/02/03 08:05:36;;;;;;;;;;;;;;;;;;5059795;28;20172;-67
2022/02/03 08:08:06;;;;;;;;;;;;;;;;;;5061174;28;19916;-67
2022/02/03 08:10:53;;;;;;;;;;;;;;;;;;5042212;28;20138;-67
2022/02/03 08:13:25;;;;;;;;;;;;;;;;;;5060324;28;19928;-67
2022/02/03 08:15:58;;;;;;;;;;;;;;;;;;5059936;28;19916;-67
2022/02/03 08:18:23;;;;;;;;;;;;;;;;;;5060654;28;19912;-67
2022/02/03 08:20:53;;;;;;;;;;;;;;;;;;5055913;28;19913;-67
2022/02/03 08:26:00;;;;;;;;;;;;;;;;;;5058656;28;19920;-67
2022/02/03 08:28:37;;;;;;;;;;;;;;;;;;5060810;28;20483;-67
2022/02/03 08:31:08;;;;;;;;;;;;;;;;;;5060399;28;19919;-67
2022/02/03 08:33:34;;;;;;;;;;;;;;;;;;5053202;28;19908;-67
2022/02/03 08:36:02;;;;;;;;;;;;;;;;;;5060419;28;20490;-67
2022/02/03 08:41:07;;;;;;;;;;;;;;;;;;5055804;28;19927;-67
2022/02/03 08:43:32;;;;;;;;;;;;;;;;;;5060774;28;19908;-67
2022/02/03 08:45:58;;;;;;;;;;;;;;;;;;5059459;28;20295;-67
2022/02/03 08:48:23;;;;;;;;;;;;;;;;;;5058901;28;20433;-67
2022/02/03 08:50:48;;;;;;;;;;;;;;;;;;5059273;28;20170;-67
2022/02/03 08:53:19;;;;;;;;;;;;;;;;;;5068329;28;19922;-67
2022/02/03 09:41:16;;;;;;;;;;;;;;;;;;5057476;28;19918;-68
2022/02/03 10:02:14;;;;;;;;;;;;;;;;;;5058392;28;20526;-68
2022/02/03 10:04:55;;;;;;;;;;;;;;;;;;5057874;28;19921;-68
2022/02/03 10:07:21;;;;;;;;;;;;;;;;;;5058844;28;20016;-68
2022/02/03 10:09:46;;;;;;;;;;;;;;;;;;5056622;28;20026;-68
2022/02/03 10:12:11;;;;;;;;;;;;;;;;;;5058603;28;19936;-68
2022/02/03 10:14:36;;;;;;;;;;;;;;;;;;5058133;28;19916;-68
2022/02/03 10:17:03;;;;;;;;;;;;;;;;;;5057635;28;19912;-69
2022/02/03 10:19:34;;;;;;;;;;;;;;;;;;5057161;28;20105;-69
2022/02/03 10:22:01;;;;;;;;;;;;;;;;;;5057088;28;20211;-68
2022/02/03 10:24:32;;;;;;;;;;;;;;;;;;5058510;28;20019;-69
2022/02/03 10:26:57;;;;;;;;;;;;;;;;;;5058185;28;19985;-68
2022/02/03 10:29:23;;;;;;;;;;;;;;;;;;5064609;28;19927;-69
2022/02/03 10:31:48;;;;;;;;;;;;;;;;;;5058167;28;19915;-70
2022/02/03 10:34:15;;;;;;;;;;;;;;;;;;5056799;28;19912;-70
2022/02/03 10:50:22;;;;;;;;;;;;;;;;;;4936406;28;20226;-70
2022/02/03 11:07:45;;;;;;;;;;;;;;;;;;4936993;28;20427;-70
2022/02/03 11:12:53;;;;;;;;;;;;;;;;;;4937127;28;19989;-70
2022/02/03 11:15:18;;;;;;;;;;;;;;;;;;4940892;28;20001;-70
2022/02/03 11:17:43;;;;;;;;;;;;;;;;;;4972049;28;19918;-70
2022/02/03 11:20:09;;;;;;;;;;;;;;;;;;5041489;28;19913;-70
2022/02/03 11:22:45;;;;;;;;;;;;;;;;;;5052529;28;19916;-70
2022/02/03 11:25:20;;;;;;;;;;;;;;;;;;5055428;28;19912;-69
2022/02/03 11:28:06;;;;;;;;;;;;;;;;;;5056356;28;20657;-69
2022/02/03 11:33:22;;;;;;;;;;;;;;;;;;5058159;28;20211;-69
2022/02/03 11:44:08;;;;;;;;;;;;;;;;;;5057731;28;19920;-69
2022/02/03 11:49:22;;;;;;;;;;;;;;;;;;5060736;28;19931;-69
2022/02/03 11:54:33;;;;;;;;;;;;;;;;;;5067534;28;19962;-69
2022/02/03 12:02:21;;;;;;;;;;;;;;;;;;5060614;28;19974;-69
2022/02/03 12:07:38;;;;;;;;;;;;;;;;;;5061911;28;19919;-69
2022/02/03 12:20:54;;;;;;;;;;;;;;;;;;5060452;28;19998;-69
2022/02/03 12:23:23;;;;;;;;;;;;;;;;;;5058369;28;19917;-69
2022/02/03 12:26:12;;;;;;;;;;;;;;;;;;5057448;28;20450;-69
2022/02/03 12:28:48;;;;;;;;;;;;;;;;;;5060188;28;20011;-69
2022/02/03 12:38:52;;;;;;;;;;;;;;;;;;5059424;28;20407;-69
2022/02/03 12:41:35;;;;;;;;;;;;;;;;;;5060535;28;19952;-69
2022/02/03 12:44:03;;;;;;;;;;;;;;;;;;5058774;28;19913;-69
2022/02/03 12:46:28;;;;;;;;;;;;;;;;;;5060863;28;19916;-69
2022/02/03 12:48:53;;;;;;;;;;;;;;;;;;5059919;28;20403;-69
2022/02/03 12:51:19;;;;;;;;;;;;;;;;;;5059734;28;19991;-69
2022/02/03 12:53:44;;;;;;;;;;;;;;;;;;5058315;28;20113;-69
2022/02/03 12:56:10;;;;;;;;;;;;;;;;;;5059842;28;20160;-69
2022/02/03 12:58:36;;;;;;;;;;;;;;;;;;5059074;28;20184;-69
2022/02/03 13:01:10;;;;;;;;;;;;;;;;;;5059423;28;19978;-69
2022/02/03 13:03:39;;;;;;;;;;;;;;;;;;5059647;28;20097;-71
2022/02/03 13:06:06;;;;;;;;;;;;;;;;;;5060279;28;20413;-68
2022/02/03 13:08:31;;;;;;;;;;;;;;;;;;5059757;28;19912;-68
2022/02/03 13:10:56;;;;;;;;;;;;;;;;;;5059348;28;20246;-68
2022/02/03 13:13:29;;;;;;;;;;;;;;;;;;5059507;28;19948;-69
2022/02/03 13:15:54;;;;;;;;;;;;;;;;;;5055142;28;20003;-69
2022/02/03 13:18:24;;;;;;;;;;;;;;;;;;5060185;28;20005;-69
2022/02/03 13:23:25;;;;;;;;;;;;;;;;;;5057387;28;20430;-69
2022/02/03 13:26:01;;;;;;;;;;;;;;;;;;5059585;28;20149;-69
2022/02/03 13:31:07;;;;;;;;;;;;;;;;;;5059368;28;19962;-69
2022/02/03 13:33:43;;;;;;;;;;;;;;;;;;5048555;28;19908;-69
2022/02/03 13:36:12;;;;;;;;;;;;;;;;;;5059193;28;20085;-68
2022/02/03 13:38:50;;;;;;;;;;;;;;;;;;5058859;28;20564;-70
2022/02/03 13:41:25;;;;;;;;;;;;;;;;;;5057342;28;20396;-70
2022/02/03 13:43:51;;;;;;;;;;;;;;;;;;5052650;28;20241;-70
2022/02/03 13:46:16;;;;;;;;;;;;;;;;;;5059644;28;19994;-70
2022/02/03 13:48:41;;;;;;;;;;;;;;;;;;5058981;28;20336;-70
2022/02/03 13:51:09;;;;;;;;;;;;;;;;;;5052939;28;20123;-70
2022/02/03 13:53:47;;;;;;;;;;;;;;;;;;5061157;28;19912;-70
2022/02/03 14:15:11;;;;;;;;;;;;;;;;;;5057382;28;20205;-70
2022/02/03 14:28:10;;;;;;;;;;;;;;;;;;5058183;28;19979;-70
2022/02/03 14:30:42;;;;;;;;;;;;;;;;;;5057603;28;19948;-70
2022/02/03 14:33:07;;;;;;;;;;;;;;;;;;5058043;28;19943;-70
2022/02/03 14:35:32;;;;;;;;;;;;;;;;;;5045768;28;20618;-70
2022/02/03 14:40:35;;;;;;;;;;;;;;;;;;5057254;28;20506;-70
2022/02/03 14:43:03;;;;;;;;;;;;;;;;;;5058010;28;20405;-70
2022/02/03 14:45:28;;;;;;;;;;;;;;;;;;5056902;28;19962;-70
2022/02/03 14:47:53;;;;;;;;;;;;;;;;;;5056816;28;19916;-70
2022/02/03 14:50:19;;;;;;;;;;;;;;;;;;5055677;28;19920;-70
2022/02/03 14:52:56;;;;;;;;;;;;;;;;;;5056542;28;20203;-70
2022/02/03 14:58:13;;;;;;;;;;;;;;;;;;5055688;28;19923;-70
2022/02/03 15:00:40;;;;;;;;;;;;;;;;;;5053172;28;19935;-70
2022/02/03 15:03:05;;;;;;;;;;;;;;;;;;5057621;28;20011;-70
2022/02/03 15:05:37;;;;;;;;;;;;;;;;;;4877370;28;5150046;-70
2022/02/03 15:08:04;;;;;;;;;;;;;;;;;;5057892;28;20175;-70
2022/02/03 15:15:34;;;;;;;;;;;;;;;;;;5057450;28;19926;-70
2022/02/03 15:17:59;;;;;;;;;;;;;;;;;;5058443;28;20179;-70
2022/02/03 15:20:24;;;;;;;;;;;;;;;;;;5055768;28;20201;-70
2022/02/03 15:22:49;;;;;;;;;;;;;;;;;;5055443;28;21250;-70
2022/02/03 15:25:15;;;;;;;;;;;;;;;;;;5053482;28;19931;-70
2022/02/03 15:27:40;;;;;;;;;;;;;;;;;;5057807;28;20167;-70
2022/02/03 15:30:05;;;;;;;;;;;;;;;;;;5061416;28;19982;-70
2022/02/03 15:32:37;;;;;;;;;;;;;;;;;;5060263;28;19912;-70
2022/02/03 15:35:04;;;;;;;;;;;;;;;;;;5058076;28;19951;-70
2022/02/03 15:37:29;;;;;;;;;;;;;;;;;;5057827;28;19921;-70
2022/02/03 15:40:02;;;;;;;;;;;;;;;;;;5056249;28;19913;-70
2022/02/03 15:42:29;;;;;;;;;;;;;;;;;;5055970;28;20253;-70
2022/02/03 15:44:56;;;;;;;;;;;;;;;;;;5057687;28;20138;-70
2022/02/03 15:58:43;;;;;;;;;;;;;;;;;;5058278;28;19920;-70
2022/02/03 16:03:43;;;;;;;;;;;;;;;;;;5058978;28;20470;-70
2022/02/03 16:17:06;;;;;;;;;;;;;;;;;;5051528;28;20367;-70
2022/02/03 16:22:28;;;;;;;;;;;;;;;;;;4992686;28;19918;-70
2022/02/03 16:25:00;;;;;;;;;;;;;;;;;;4991125;28;20123;-70
2022/02/03 16:54:06;;;;;;;;;;;;;;;;;;4958071;28;19915;-70
2022/02/03 16:56:31;;;;;;;;;;;;;;;;;;4957337;28;19914;-70
2022/02/03 16:58:57;;;;;;;;;;;;;;;;;;4968487;28;20283;-70
2022/02/03 17:01:22;;;;;;;;;;;;;;;;;;4977743;28;20008;-70
2022/02/03 17:03:47;;;;;;;;;;;;;;;;;;4976290;28;19926;-70
2022/02/03 17:06:13;;;;;;;;;;;;;;;;;;4977744;28;19921;-70
2022/02/03 17:08:39;;;;;;;;;;;;;;;;;;4977278;28;20066;-70
2022/02/03 17:11:04;;;;;;;;;;;;;;;;;;4990637;28;20689;-70
2022/02/03 17:13:29;;;;;;;;;;;;;;;;;;4993803;28;19913;-70
2022/02/03 17:15:54;;;;;;;;;;;;;;;;;;4977068;28;20150;-70
2022/02/03 17:18:19;;;;;;;;;;;;;;;;;;4981185;28;20142;-70
2022/02/03 17:20:46;;;;;;;;;;;;;;;;;;4989535;28;20241;-70
2022/02/03 17:23:16;;;;;;;;;;;;;;;;;;4996149;28;19910;-70
2022/02/03 17:28:19;;;;;;;;;;;;;;;;;;5059393;28;20177;-70
2022/02/03 17:30:55;;;;;;;;;;;;;;;;;;5057248;28;19943;-70
2022/02/03 18:08:48;;;;;;;;;;;;;;;;;;5058261;28;20173;-70
2022/02/03 18:32:55;;;;;;;;;;;;;;;;;;5056871;28;19971;-70
2022/02/03 18:35:28;;;;;;;;;;;;;;;;;;5056965;28;20328;-70
2022/02/03 18:52:20;;;;;;;;;;;;;;;;;;5023974;28;20479;-70
2022/02/03 19:23:55;;;;;;;;;;;;;;;;;;4955535;28;19929;-70
2022/02/03 19:26:29;;;;;;;;;;;;;;;;;;4981593;28;19917;-70
2022/02/03 20:04:09;;;;;;;;;;;;;;;;;;5053109;28;19966;-70
2022/02/03 20:09:17;;;;;;;;;;;;;;;;;;5059026;28;20097;-70
2022/02/03 20:11:43;;;;;;;;;;;;;;;;;;5060655;28;20153;-70
2022/02/03 20:14:13;;;;;;;;;;;;;;;;;;5059352;28;19920;-70
2022/02/03 20:16:38;;;;;;;;;;;;;;;;;;5058195;28;19990;-70
2022/02/03 20:19:03;;;;;;;;;;;;;;;;;;5059786;28;19917;-70
2022/02/03 20:21:31;;;;;;;;;;;;;;;;;;5060126;28;19913;-69
2022/02/03 20:23:56;;;;;;;;;;;;;;;;;;5059136;28;20624;-70
2022/02/03 20:26:22;;;;;;;;;;;;;;;;;;5059913;28;20003;-70
2022/02/03 20:28:47;;;;;;;;;;;;;;;;;;5059941;28;19921;-70
2022/02/03 20:31:12;;;;;;;;;;;;;;;;;;5060163;28;19940;-70
2022/02/03 20:33:37;;;;;;;;;;;;;;;;;;5058784;28;19952;-70
2022/02/03 20:36:02;;;;;;;;;;;;;;;;;;5060287;28;19916;-70
2022/02/03 20:38:27;;;;;;;;;;;;;;;;;;5059915;28;19915;-70
2022/02/03 20:40:52;;;;;;;;;;;;;;;;;;5059849;28;20033;-70
2022/02/03 20:43:18;;;;;;;;;;;;;;;;;;5059380;28;20049;-70
2022/02/03 20:45:43;;;;;;;;;;;;;;;;;;5060014;28;19983;-70
2022/02/03 20:48:08;;;;;;;;;;;;;;;;;;5059439;28;20296;-70
2022/02/03 20:50:35;;;;;;;;;;;;;;;;;;5058783;28;19919;-70
2022/02/03 20:53:00;;;;;;;;;;;;;;;;;;5059742;28;19913;-70
2022/02/03 20:55:26;;;;;;;;;;;;;;;;;;5056641;28;19980;-70
2022/02/03 20:57:51;;;;;;;;;;;;;;;;;;5059349;28;19970;-70
2022/02/03 21:00:26;;;;;;;;;;;;;;;;;;5059426;28;19928;-70
2022/02/03 21:05:22;;;;;;;;;;;;;;;;;;5057747;28;20441;-67
2022/02/03 21:07:47;;;;;;;;;;;;;;;;;;5058502;28;19912;-70
2022/02/03 21:10:15;;;;;;;;;;;;;;;;;;5059025;28;20368;-70
2022/02/03 21:12:40;;;;;;;;;;;;;;;;;;5059653;28;19966;-70
2022/02/03 21:15:06;;;;;;;;;;;;;;;;;;5057808;28;19959;-70
2022/02/03 21:17:32;;;;;;;;;;;;;;;;;;5055451;28;19912;-70
2022/02/03 21:20:08;;;;;;;;;;;;;;;;;;5061832;28;19919;-70
2022/02/03 21:22:37;;;;;;;;;;;;;;;;;;5058925;28;19912;-70
2022/02/03 21:25:03;;;;;;;;;;;;;;;;;;5058822;28;19912;-70
2022/02/03 21:27:30;;;;;;;;;;;;;;;;;;5055742;28;20098;-70
2022/02/03 21:29:55;;;;;;;;;;;;;;;;;;5058091;28;19924;-70
2022/02/03 21:32:21;;;;;;;;;;;;;;;;;;5058569;28;20070;-70
2022/02/03 21:34:49;;;;;;;;;;;;;;;;;;5058647;28;20501;-70
2022/02/03 21:37:14;;;;;;;;;;;;;;;;;;5058437;28;20361;-70
2022/02/03 21:39:39;;;;;;;;;;;;;;;;;;5057456;28;20416;-70
2022/02/03 21:42:04;;;;;;;;;;;;;;;;;;5058394;28;20452;-70
2022/02/03 21:44:30;;;;;;;;;;;;;;;;;;5057661;28;20114;-70
2022/02/03 21:46:55;;;;;;;;;;;;;;;;;;5058027;28;19912;-70
2022/02/03 21:49:23;;;;;;;;;;;;;;;;;;5058153;28;19916;-70
2022/02/03 21:51:50;;;;;;;;;;;;;;;;;;5058440;28;20003;-70
2022/02/03 21:54:15;;;;;;;;;;;;;;;;;;5057439;28;20455;-70
2022/02/03 21:56:42;;;;;;;;;;;;;;;;;;5058395;28;19917;-70
2022/02/03 21:59:08;;;;;;;;;;;;;;;;;;5058556;28;19920;-70
2022/02/03 22:01:35;;;;;;;;;;;;;;;;;;5058650;28;19924;-70
2022/02/03 22:04:00;;;;;;;;;;;;;;;;;;5057860;28;20045;-67
2022/02/03 22:06:25;;;;;;;;;;;;;;;;;;5056001;28;20056;-69
2022/02/03 22:08:50;;;;;;;;;;;;;;;;;;5057280;28;19931;-69
2022/02/03 22:11:15;;;;;;;;;;;;;;;;;;5054061;28;19913;-69
2022/02/03 22:13:40;;;;;;;;;;;;;;;;;;5055921;28;19962;-69
2022/02/03 22:16:07;;;;;;;;;;;;;;;;;;5056155;28;20330;-69
2022/02/03 22:18:32;;;;;;;;;;;;;;;;;;5056707;28;19923;-69
2022/02/03 22:21:03;;;;;;;;;;;;;;;;;;5057156;28;19995;-70
2022/02/03 22:49:31;;;;;;;;;;;;;;;;;;5053826;28;19936;-70
2022/02/03 22:51:56;;;;;;;;;;;;;;;;;;5053953;28;19916;-69
2022/02/03 22:54:21;;;;;;;;;;;;;;;;;;5052114;28;19913;-70
2022/02/03 22:56:46;;;;;;;;;;;;;;;;;;5056043;28;19922;-70
2022/02/03 23:02:00;;;;;;;;;;;;;;;;;;5009159;28;19940;-70
2022/02/03 23:04:25;;;;;;;;;;;;;;;;;;5056331;28;20296;-68
2022/02/03 23:06:55;;;;;;;;;;;;;;;;;;5055963;28;19928;-68
2022/02/03 23:22:26;;;;;;;;;;;;;;;;;;4993170;28;19968;-70
2022/02/03 23:24:53;;;;;;;;;;;;;;;;;;4996385;28;19921;-70
2022/02/03 23:30:01;;;;;;;;;;;;;;;;;;4993406;28;19928;-70
2022/02/03 23:32:28;;;;;;;;;;;;;;;;;;4994358;28;20240;-71
2022/02/03 23:35:03;;;;;;;;;;;;;;;;;;4994508;28;20148;-70
2022/02/03 23:37:35;;;;;;;;;;;;;;;;;;4994258;28;19945;-70
2022/02/03 23:40:07;;;;;;;;;;;;;;;;;;4994724;28;20177;-71
